Time;durP1;ratioP1;P1;durP2;ratioP2;P2;SDS_P1;SDS_P2;PMS_P1;PMS_P2;Temp;Humidity;BMP_temperature;BMP_pressure;BME280_temperature;BME280_humidity;BME280_pressure;Samples;Min_cycle;Max_cycle;Signal;HPM_P1;HPM_P2
2021/09/02 00:00:00;;;;;;;;;;;;;;;;;;2114733;27;1053;-70
2021/09/02 00:01:01;;;;;;;;;;;;;;;;;;2111124;27;1034;-70
2021/09/02 00:02:01;;;;;;;;;;;;;;;;;;2108239;27;4030;-70
2021/09/02 00:03:02;;;;;;;;;;;;;;;;;;2107113;27;4315;-70
2021/09/02 00:04:02;;;;;;;;;;;;;;;;;;2106666;27;4390;-70
2021/09/02 00:05:03;;;;;;;;;;;;;;;;;;2108010;27;3887;-70
2021/09/02 00:06:05;;;;;;;;;;;;;;;;;;2107940;27;1157;-70
2021/09/02 00:07:05;;;;;;;;;;;;;;;;;;2107879;27;998;-70
2021/09/02 00:08:06;;;;;;;;;;;;;;;;;;2109289;27;1019;-70
2021/09/02 00:09:06;;;;;;;;;;;;;;;;;;2105556;27;1906;-70
2021/09/02 00:10:07;;;;;;;;;;;;;;;;;;2108882;27;1014;-70
2021/09/02 00:11:07;;;;;;;;;;;;;;;;;;2107689;27;4244;-70
2021/09/02 00:12:08;;;;;;;;;;;;;;;;;;2107158;27;4318;-70
2021/09/02 00:13:08;;;;;;;;;;;;;;;;;;2107738;27;4378;-70
2021/09/02 00:14:09;;;;;;;;;;;;;;;;;;2108500;27;1196;-70
2021/09/02 00:15:10;;;;;;;;;;;;;;;;;;2108405;27;1718;-70
2021/09/02 00:16:11;;;;;;;;;;;;;;;;;;2108856;27;4098;-70
2021/09/02 00:17:11;;;;;;;;;;;;;;;;;;2109125;27;1098;-70
2021/09/02 00:18:12;;;;;;;;;;;;;;;;;;2108059;27;4260;-70
2021/09/02 00:19:12;;;;;;;;;;;;;;;;;;2109944;27;1173;-70
2021/09/02 00:20:13;;;;;;;;;;;;;;;;;;2109182;27;4231;-70
2021/09/02 00:21:13;;;;;;;;;;;;;;;;;;2108685;27;3934;-70
2021/09/02 00:22:15;;;;;;;;;;;;;;;;;;2108749;27;4101;-70
2021/09/02 00:23:15;;;;;;;;;;;;;;;;;;2108737;27;1341;-70
2021/09/02 00:24:16;;;;;;;;;;;;;;;;;;2108846;27;3901;-70
2021/09/02 00:25:16;;;;;;;;;;;;;;;;;;2109156;27;2265;-70
2021/09/02 00:26:17;;;;;;;;;;;;;;;;;;2108977;27;1018;-70
2021/09/02 00:27:17;;;;;;;;;;;;;;;;;;2109081;27;3864;-70
2021/09/02 00:28:19;;;;;;;;;;;;;;;;;;2109719;27;970;-70
2021/09/02 00:29:19;;;;;;;;;;;;;;;;;;2110224;27;1989;-70
2021/09/02 00:30:20;;;;;;;;;;;;;;;;;;2110597;27;3891;-70
2021/09/02 00:31:20;;;;;;;;;;;;;;;;;;2109535;27;1091;-70
2021/09/02 00:32:21;;;;;;;;;;;;;;;;;;2110093;27;1149;-70
2021/09/02 00:33:22;;;;;;;;;;;;;;;;;;2109493;27;1380;-70
2021/09/02 00:34:23;;;;;;;;;;;;;;;;;;2109545;27;2434;-70
2021/09/02 00:35:23;;;;;;;;;;;;;;;;;;2110933;27;1878;-70
2021/09/02 00:36:24;;;;;;;;;;;;;;;;;;2109835;27;1033;-70
2021/09/02 00:37:24;;;;;;;;;;;;;;;;;;2111340;27;1036;-70
2021/09/02 00:38:25;;;;;;;;;;;;;;;;;;2111645;27;1080;-70
2021/09/02 00:39:26;;;;;;;;;;;;;;;;;;2110022;27;4230;-70
2021/09/02 00:40:27;;;;;;;;;;;;;;;;;;2110985;27;1064;-70
2021/09/02 00:41:27;;;;;;;;;;;;;;;;;;2110629;27;1101;-70
2021/09/02 00:42:28;;;;;;;;;;;;;;;;;;2111284;27;1049;-70
2021/09/02 00:43:31;;;;;;;;;;;;;;;;;;2110953;27;1288;-70
2021/09/02 00:44:32;;;;;;;;;;;;;;;;;;2110967;27;4297;-70
2021/09/02 00:45:32;;;;;;;;;;;;;;;;;;2111383;27;2245;-70
2021/09/02 00:46:33;;;;;;;;;;;;;;;;;;2110742;27;1162;-70
2021/09/02 00:47:34;;;;;;;;;;;;;;;;;;2111732;27;1065;-70
2021/09/02 00:48:35;;;;;;;;;;;;;;;;;;2112186;27;1064;-70
2021/09/02 00:49:35;;;;;;;;;;;;;;;;;;2111450;27;1996;-70
2021/09/02 00:50:36;;;;;;;;;;;;;;;;;;2104961;27;1412;-70
2021/09/02 00:51:36;;;;;;;;;;;;;;;;;;2111711;27;1149;-70
2021/09/02 00:52:37;;;;;;;;;;;;;;;;;;2112712;27;1161;-70
2021/09/02 00:53:37;;;;;;;;;;;;;;;;;;2111827;27;1380;-70
2021/09/02 00:54:38;;;;;;;;;;;;;;;;;;2109870;27;4282;-70
2021/09/02 00:55:38;;;;;;;;;;;;;;;;;;2111669;27;4410;-70
2021/09/02 00:56:40;;;;;;;;;;;;;;;;;;2112168;27;1201;-70
2021/09/02 00:57:40;;;;;;;;;;;;;;;;;;2112688;27;1112;-70
2021/09/02 00:58:41;;;;;;;;;;;;;;;;;;2113206;27;1195;-70
2021/09/02 00:59:41;;;;;;;;;;;;;;;;;;2112064;27;4234;-70
2021/09/02 01:00:42;;;;;;;;;;;;;;;;;;2114038;27;972;-70
2021/09/02 01:01:42;;;;;;;;;;;;;;;;;;2113188;27;1092;-70
2021/09/02 01:02:43;;;;;;;;;;;;;;;;;;2113726;27;1041;-70
2021/09/02 01:03:43;;;;;;;;;;;;;;;;;;2113041;27;1391;-70
2021/09/02 01:04:44;;;;;;;;;;;;;;;;;;2113065;27;3517;-70
2021/09/02 01:05:44;;;;;;;;;;;;;;;;;;2112136;27;4309;-70
2021/09/02 01:06:46;;;;;;;;;;;;;;;;;;2113731;27;1053;-70
2021/09/02 01:07:46;;;;;;;;;;;;;;;;;;2113857;27;1084;-70
2021/09/02 01:08:47;;;;;;;;;;;;;;;;;;2114058;27;1311;-70
2021/09/02 01:09:47;;;;;;;;;;;;;;;;;;2111941;27;1971;-70
2021/09/02 01:10:49;;;;;;;;;;;;;;;;;;2107252;27;1146;-70
2021/09/02 01:11:50;;;;;;;;;;;;;;;;;;2107499;27;1204;-70
2021/09/02 01:12:51;;;;;;;;;;;;;;;;;;2108841;27;1072;-70
2021/09/02 01:13:51;;;;;;;;;;;;;;;;;;2106043;27;1272;-70
2021/09/02 01:14:52;;;;;;;;;;;;;;;;;;2107508;27;4284;-70
2021/09/02 01:15:53;;;;;;;;;;;;;;;;;;2106951;27;1132;-70
2021/09/02 01:16:53;;;;;;;;;;;;;;;;;;2107683;27;1088;-70
2021/09/02 01:17:54;;;;;;;;;;;;;;;;;;2107231;27;1673;-70
2021/09/02 01:18:54;;;;;;;;;;;;;;;;;;2108001;27;1028;-70
2021/09/02 01:19:56;;;;;;;;;;;;;;;;;;2107231;27;4287;-70
2021/09/02 01:20:56;;;;;;;;;;;;;;;;;;2107840;27;1079;-70
2021/09/02 01:21:57;;;;;;;;;;;;;;;;;;2107774;27;1192;-70
2021/09/02 01:22:57;;;;;;;;;;;;;;;;;;2109046;27;1124;-70
2021/09/02 01:23:58;;;;;;;;;;;;;;;;;;2107424;27;1215;-70
2021/09/02 01:24:58;;;;;;;;;;;;;;;;;;2107585;27;3527;-70
2021/09/02 01:25:59;;;;;;;;;;;;;;;;;;2109642;27;1955;-70
2021/09/02 01:26:59;;;;;;;;;;;;;;;;;;2109310;27;1040;-70
2021/09/02 01:28:00;;;;;;;;;;;;;;;;;;2110362;27;1005;-70
2021/09/02 01:29:01;;;;;;;;;;;;;;;;;;2110098;27;1135;-70
2021/09/02 01:30:02;;;;;;;;;;;;;;;;;;2109896;27;1938;-70
2021/09/02 01:31:03;;;;;;;;;;;;;;;;;;2108408;27;4140;-70
2021/09/02 01:32:03;;;;;;;;;;;;;;;;;;2110311;27;1060;-70
2021/09/02 01:33:04;;;;;;;;;;;;;;;;;;2109981;27;1373;-70
2021/09/02 01:34:04;;;;;;;;;;;;;;;;;;2108679;27;4296;-70
2021/09/02 01:35:05;;;;;;;;;;;;;;;;;;2104335;27;4372;-70
2021/09/02 01:36:05;;;;;;;;;;;;;;;;;;2109797;27;1044;-70
2021/09/02 01:37:06;;;;;;;;;;;;;;;;;;2107581;27;4323;-70
2021/09/02 01:38:07;;;;;;;;;;;;;;;;;;2108848;27;3889;-70
2021/09/02 01:39:08;;;;;;;;;;;;;;;;;;2110105;27;1109;-70
2021/09/02 01:40:08;;;;;;;;;;;;;;;;;;2111185;27;1089;-70
2021/09/02 01:41:09;;;;;;;;;;;;;;;;;;2108838;27;4337;-70
2021/09/02 01:42:09;;;;;;;;;;;;;;;;;;2111136;27;1033;-70
2021/09/02 01:43:11;;;;;;;;;;;;;;;;;;2109937;27;1274;-70
2021/09/02 01:44:12;;;;;;;;;;;;;;;;;;2111151;27;998;-70
2021/09/02 01:45:13;;;;;;;;;;;;;;;;;;2111156;27;2437;-70
2021/09/02 01:46:13;;;;;;;;;;;;;;;;;;2110741;27;3962;-70
2021/09/02 01:47:14;;;;;;;;;;;;;;;;;;2111412;27;1072;-70
2021/09/02 01:48:15;;;;;;;;;;;;;;;;;;2110244;27;4082;-70
2021/09/02 01:49:15;;;;;;;;;;;;;;;;;;2111372;27;1034;-70
2021/09/02 01:50:17;;;;;;;;;;;;;;;;;;2105379;27;1906;-70
2021/09/02 01:51:17;;;;;;;;;;;;;;;;;;2110293;27;1524;-70
2021/09/02 01:52:18;;;;;;;;;;;;;;;;;;2111239;27;4370;-70
2021/09/02 01:53:19;;;;;;;;;;;;;;;;;;2107810;27;2061;-70
2021/09/02 01:54:19;;;;;;;;;;;;;;;;;;2112394;27;1307;-70
2021/09/02 01:55:20;;;;;;;;;;;;;;;;;;2110570;27;4342;-70
2021/09/02 01:56:21;;;;;;;;;;;;;;;;;;2110195;27;4365;-70
2021/09/02 01:57:22;;;;;;;;;;;;;;;;;;2112218;27;1235;-70
2021/09/02 01:58:23;;;;;;;;;;;;;;;;;;2112820;27;1117;-70
2021/09/02 01:59:23;;;;;;;;;;;;;;;;;;2111222;27;1106;-70
2021/09/02 02:00:24;;;;;;;;;;;;;;;;;;2113239;27;1044;-70
2021/09/02 02:01:24;;;;;;;;;;;;;;;;;;2111986;27;1173;-70
2021/09/02 02:02:25;;;;;;;;;;;;;;;;;;2113075;27;1586;-70
2021/09/02 02:03:25;;;;;;;;;;;;;;;;;;2111522;27;1258;-70
2021/09/02 02:04:26;;;;;;;;;;;;;;;;;;2111724;27;4357;-70
2021/09/02 02:05:26;;;;;;;;;;;;;;;;;;2112921;27;2198;-70
2021/09/02 02:06:28;;;;;;;;;;;;;;;;;;2112611;27;1332;-70
2021/09/02 02:07:28;;;;;;;;;;;;;;;;;;2114253;27;1156;-70
2021/09/02 02:08:29;;;;;;;;;;;;;;;;;;2113215;27;1370;-70
2021/09/02 02:09:29;;;;;;;;;;;;;;;;;;2111946;27;1116;-70
2021/09/02 02:10:31;;;;;;;;;;;;;;;;;;2111714;27;4304;-70
2021/09/02 02:11:31;;;;;;;;;;;;;;;;;;2112250;27;4252;-70
2021/09/02 02:12:32;;;;;;;;;;;;;;;;;;2110336;27;4075;-70
2021/09/02 02:13:32;;;;;;;;;;;;;;;;;;2112851;27;1356;-70
2021/09/02 02:14:34;;;;;;;;;;;;;;;;;;2113542;27;1058;-70
2021/09/02 02:15:34;;;;;;;;;;;;;;;;;;2108719;27;4310;-70
2021/09/02 02:16:35;;;;;;;;;;;;;;;;;;2106381;27;1013;-70
2021/09/02 02:17:35;;;;;;;;;;;;;;;;;;2107795;27;1168;-70
2021/09/02 02:18:36;;;;;;;;;;;;;;;;;;2107091;27;1113;-70
2021/09/02 02:19:36;;;;;;;;;;;;;;;;;;2108083;27;1053;-70
2021/09/02 02:20:37;;;;;;;;;;;;;;;;;;2105684;28;4703;-70
2021/09/02 02:21:37;;;;;;;;;;;;;;;;;;2107054;27;1118;-70
2021/09/02 02:22:38;;;;;;;;;;;;;;;;;;2105736;27;1108;-70
2021/09/02 02:23:38;;;;;;;;;;;;;;;;;;2106416;27;1267;-70
2021/09/02 02:24:40;;;;;;;;;;;;;;;;;;2107832;27;1047;-70
2021/09/02 02:25:40;;;;;;;;;;;;;;;;;;2106952;27;4279;-70
2021/09/02 02:26:41;;;;;;;;;;;;;;;;;;2106212;27;4799;-70
2021/09/02 02:27:41;;;;;;;;;;;;;;;;;;2108502;27;1042;-70
2021/09/02 02:28:42;;;;;;;;;;;;;;;;;;2108296;27;1072;-70
2021/09/02 02:29:42;;;;;;;;;;;;;;;;;;2108817;27;2066;-70
2021/09/02 02:30:43;;;;;;;;;;;;;;;;;;2107436;27;3871;-70
2021/09/02 02:31:43;;;;;;;;;;;;;;;;;;2107872;27;1103;-70
2021/09/02 02:32:44;;;;;;;;;;;;;;;;;;2108404;27;1061;-70
2021/09/02 02:33:45;;;;;;;;;;;;;;;;;;2108086;27;1369;-70
2021/09/02 02:34:46;;;;;;;;;;;;;;;;;;2106393;27;1275;-70
2021/09/02 02:35:47;;;;;;;;;;;;;;;;;;2105570;27;2756;-70
2021/09/02 02:36:47;;;;;;;;;;;;;;;;;;2108256;27;1272;-70
2021/09/02 02:37:48;;;;;;;;;;;;;;;;;;2108962;27;1686;-70
2021/09/02 02:38:48;;;;;;;;;;;;;;;;;;2109377;27;1133;-70
2021/09/02 02:39:49;;;;;;;;;;;;;;;;;;2107594;27;1034;-70
2021/09/02 02:40:49;;;;;;;;;;;;;;;;;;2108736;27;2425;-70
2021/09/02 02:41:50;;;;;;;;;;;;;;;;;;2108758;27;1103;-70
2021/09/02 02:42:51;;;;;;;;;;;;;;;;;;2109060;27;1131;-70
2021/09/02 02:43:52;;;;;;;;;;;;;;;;;;2108054;27;1314;-70
2021/09/02 02:44:52;;;;;;;;;;;;;;;;;;2109728;27;4378;-70
2021/09/02 02:45:53;;;;;;;;;;;;;;;;;;2108590;27;4412;-70
2021/09/02 02:46:53;;;;;;;;;;;;;;;;;;2109583;27;1152;-70
2021/09/02 02:47:55;;;;;;;;;;;;;;;;;;2109809;27;1222;-70
2021/09/02 02:48:55;;;;;;;;;;;;;;;;;;2109801;27;1073;-70
2021/09/02 02:49:56;;;;;;;;;;;;;;;;;;2107001;27;1933;-70
2021/09/02 02:50:56;;;;;;;;;;;;;;;;;;2109049;27;3863;-70
2021/09/02 02:51:57;;;;;;;;;;;;;;;;;;2110151;27;1111;-70
2021/09/02 02:52:58;;;;;;;;;;;;;;;;;;2110578;27;1182;-70
2021/09/02 02:53:58;;;;;;;;;;;;;;;;;;2109593;27;1292;-70
2021/09/02 02:54:59;;;;;;;;;;;;;;;;;;2107409;27;4330;-70
2021/09/02 02:55:59;;;;;;;;;;;;;;;;;;2109884;27;1096;-70
2021/09/02 02:57:00;;;;;;;;;;;;;;;;;;2111213;27;1104;-70
2021/09/02 02:58:01;;;;;;;;;;;;;;;;;;2110019;27;1176;-70
2021/09/02 02:59:02;;;;;;;;;;;;;;;;;;2110930;27;1033;-70
2021/09/02 03:00:02;;;;;;;;;;;;;;;;;;2111430;27;1044;-70
2021/09/02 03:01:03;;;;;;;;;;;;;;;;;;2109800;27;4251;-70
2021/09/02 03:02:03;;;;;;;;;;;;;;;;;;2110768;27;1173;-70
2021/09/02 03:03:04;;;;;;;;;;;;;;;;;;2111160;27;1161;-70
2021/09/02 03:04:04;;;;;;;;;;;;;;;;;;2110729;27;1040;-70
2021/09/02 03:05:05;;;;;;;;;;;;;;;;;;2110450;27;4322;-70
2021/09/02 03:06:07;;;;;;;;;;;;;;;;;;2110730;27;2061;-70
2021/09/02 03:07:09;;;;;;;;;;;;;;;;;;2112311;27;1049;-70
2021/09/02 03:08:09;;;;;;;;;;;;;;;;;;2111285;27;1318;-70
2021/09/02 03:09:10;;;;;;;;;;;;;;;;;;2112049;27;1517;-70
2021/09/02 03:10:10;;;;;;;;;;;;;;;;;;2111131;27;1988;-70
2021/09/02 03:11:12;;;;;;;;;;;;;;;;;;2111680;27;2061;-70
2021/09/02 03:12:12;;;;;;;;;;;;;;;;;;2110419;27;1105;-70
2021/09/02 03:13:13;;;;;;;;;;;;;;;;;;2112236;27;1254;-70
2021/09/02 03:14:14;;;;;;;;;;;;;;;;;;2111939;27;1099;-70
2021/09/02 03:15:15;;;;;;;;;;;;;;;;;;2110892;27;4939;-70
2021/09/02 03:16:15;;;;;;;;;;;;;;;;;;2110353;27;4299;-70
2021/09/02 03:17:16;;;;;;;;;;;;;;;;;;2112377;27;1071;-70
2021/09/02 03:18:16;;;;;;;;;;;;;;;;;;2112474;27;1063;-70
2021/09/02 03:19:17;;;;;;;;;;;;;;;;;;2112207;27;1205;-70
2021/09/02 03:20:18;;;;;;;;;;;;;;;;;;2112715;27;2410;-70
2021/09/02 03:21:18;;;;;;;;;;;;;;;;;;2110871;27;1988;-70
2021/09/02 03:22:19;;;;;;;;;;;;;;;;;;2113137;27;1128;-70
2021/09/02 03:23:20;;;;;;;;;;;;;;;;;;2112333;27;1266;-70
2021/09/02 03:24:21;;;;;;;;;;;;;;;;;;2110431;27;1414;-70
2021/09/02 03:25:21;;;;;;;;;;;;;;;;;;2107604;27;4326;-70
2021/09/02 03:26:22;;;;;;;;;;;;;;;;;;2108623;27;4254;-70
2021/09/02 03:27:22;;;;;;;;;;;;;;;;;;2108086;27;1111;-70
2021/09/02 03:28:23;;;;;;;;;;;;;;;;;;2105747;28;1102;-70
2021/09/02 03:29:23;;;;;;;;;;;;;;;;;;2105440;27;1957;-70
2021/09/02 03:30:24;;;;;;;;;;;;;;;;;;2107693;27;1914;-70
2021/09/02 03:31:24;;;;;;;;;;;;;;;;;;2106236;27;1081;-70
2021/09/02 03:32:26;;;;;;;;;;;;;;;;;;2107386;27;1970;-70
2021/09/02 03:33:27;;;;;;;;;;;;;;;;;;2105694;27;1246;-70
2021/09/02 03:34:27;;;;;;;;;;;;;;;;;;2107432;27;1107;-70
2021/09/02 03:35:28;;;;;;;;;;;;;;;;;;2108063;27;2116;-70
2021/09/02 03:36:29;;;;;;;;;;;;;;;;;;2106326;27;1084;-70
2021/09/02 03:37:29;;;;;;;;;;;;;;;;;;2107388;27;1084;-70
2021/09/02 03:38:30;;;;;;;;;;;;;;;;;;2108613;27;1158;-70
2021/09/02 03:39:30;;;;;;;;;;;;;;;;;;2107679;27;1100;-70
2021/09/02 03:40:31;;;;;;;;;;;;;;;;;;2108009;27;1053;-70
2021/09/02 03:42:40;;;;;;;;;;;;;;;;;;2120894;27;3784;-70
2021/09/02 03:43:40;;;;;;;;;;;;;;;;;;2109708;27;1376;-71
2021/09/02 03:44:41;;;;;;;;;;;;;;;;;;2108563;27;1066;-70
2021/09/02 03:45:42;;;;;;;;;;;;;;;;;;2108210;27;3514;-70
2021/09/02 03:46:43;;;;;;;;;;;;;;;;;;2108127;27;1247;-70
2021/09/02 03:47:43;;;;;;;;;;;;;;;;;;2109444;27;1044;-70
2021/09/02 03:48:44;;;;;;;;;;;;;;;;;;2109478;27;1187;-70
2021/09/02 03:49:45;;;;;;;;;;;;;;;;;;2109097;27;1089;-70
2021/09/02 03:50:46;;;;;;;;;;;;;;;;;;2109330;27;4149;-70
2021/09/02 03:51:46;;;;;;;;;;;;;;;;;;2109982;27;1055;-70
2021/09/02 03:52:47;;;;;;;;;;;;;;;;;;2109982;27;4086;-70
2021/09/02 03:53:47;;;;;;;;;;;;;;;;;;2110251;27;1399;-70
2021/09/02 03:54:48;;;;;;;;;;;;;;;;;;2106261;27;3540;-70
2021/09/02 03:55:48;;;;;;;;;;;;;;;;;;2108406;27;2850;-70
2021/09/02 03:56:49;;;;;;;;;;;;;;;;;;2110079;27;1068;-70
2021/09/02 03:57:49;;;;;;;;;;;;;;;;;;2111646;27;1105;-70
2021/09/02 03:58:52;;;;;;;;;;;;;;;;;;2111812;27;1083;-70
2021/09/02 03:59:52;;;;;;;;;;;;;;;;;;2111995;27;1112;-70
2021/09/02 04:00:53;;;;;;;;;;;;;;;;;;2111601;27;3362;-70
2021/09/02 04:01:53;;;;;;;;;;;;;;;;;;2112129;27;1909;-70
2021/09/02 04:02:54;;;;;;;;;;;;;;;;;;2112456;27;1233;-70
2021/09/02 04:03:54;;;;;;;;;;;;;;;;;;2111144;27;1470;-70
2021/09/02 04:04:55;;;;;;;;;;;;;;;;;;2112227;27;3832;-70
2021/09/02 04:05:56;;;;;;;;;;;;;;;;;;2112899;27;1030;-70
2021/09/02 04:06:56;;;;;;;;;;;;;;;;;;2112652;27;1045;-71
2021/09/02 04:07:57;;;;;;;;;;;;;;;;;;2114354;27;1092;-70
2021/09/02 04:08:58;;;;;;;;;;;;;;;;;;2113320;27;1374;-70
2021/09/02 04:09:59;;;;;;;;;;;;;;;;;;2114429;27;1036;-70
2021/09/02 04:10:59;;;;;;;;;;;;;;;;;;2112321;27;3900;-70
2021/09/02 04:12:00;;;;;;;;;;;;;;;;;;2111302;27;4592;-70
2021/09/02 04:13:00;;;;;;;;;;;;;;;;;;2113727;27;1056;-70
2021/09/02 04:14:01;;;;;;;;;;;;;;;;;;2115007;27;1341;-70
2021/09/02 04:15:01;;;;;;;;;;;;;;;;;;2113636;27;2402;-70
2021/09/02 04:16:02;;;;;;;;;;;;;;;;;;2114721;27;1100;-70
2021/09/02 04:17:02;;;;;;;;;;;;;;;;;;2115592;27;1024;-70
2021/09/02 04:18:03;;;;;;;;;;;;;;;;;;2116619;27;1064;-70
2021/09/02 04:19:04;;;;;;;;;;;;;;;;;;2116541;27;1091;-70
2021/09/02 04:20:05;;;;;;;;;;;;;;;;;;2114806;27;1002;-70
2021/09/02 04:21:05;;;;;;;;;;;;;;;;;;2114348;27;4369;-70
2021/09/02 04:22:06;;;;;;;;;;;;;;;;;;2109990;27;1909;-70
2021/09/02 04:23:06;;;;;;;;;;;;;;;;;;2115435;27;1302;-70
2021/09/02 04:24:07;;;;;;;;;;;;;;;;;;2115836;27;1104;-70
2021/09/02 04:25:07;;;;;;;;;;;;;;;;;;2112605;27;4167;-70
2021/09/02 04:26:09;;;;;;;;;;;;;;;;;;2115146;27;1093;-70
2021/09/02 04:27:11;;;;;;;;;;;;;;;;;;2116366;27;1149;-70
2021/09/02 04:28:12;;;;;;;;;;;;;;;;;;2116990;27;987;-70
2021/09/02 04:29:12;;;;;;;;;;;;;;;;;;2116914;27;1108;-70
2021/09/02 04:30:14;;;;;;;;;;;;;;;;;;2117017;27;2413;-70
2021/09/02 04:31:14;;;;;;;;;;;;;;;;;;2116757;27;1080;-70
2021/09/02 04:32:15;;;;;;;;;;;;;;;;;;2118660;27;1072;-70
2021/09/02 04:33:16;;;;;;;;;;;;;;;;;;2116451;27;1290;-70
2021/09/02 04:34:16;;;;;;;;;;;;;;;;;;2115163;27;1102;-70
2021/09/02 04:35:17;;;;;;;;;;;;;;;;;;2106137;27;4132;-70
2021/09/02 04:36:17;;;;;;;;;;;;;;;;;;2103885;27;4215;-70
2021/09/02 04:37:18;;;;;;;;;;;;;;;;;;2107020;27;1082;-70
2021/09/02 04:38:19;;;;;;;;;;;;;;;;;;2106994;27;1275;-70
2021/09/02 04:39:20;;;;;;;;;;;;;;;;;;2105063;27;1191;-70
2021/09/02 04:40:20;;;;;;;;;;;;;;;;;;2106930;27;1112;-70
2021/09/02 04:41:22;;;;;;;;;;;;;;;;;;2106908;27;4303;-70
2021/09/02 04:42:22;;;;;;;;;;;;;;;;;;2106827;27;1901;-70
2021/09/02 04:43:23;;;;;;;;;;;;;;;;;;2100516;27;3876;-70
2021/09/02 04:44:23;;;;;;;;;;;;;;;;;;2104589;27;1062;-70
2021/09/02 04:45:24;;;;;;;;;;;;;;;;;;2103145;27;3391;-70
2021/09/02 04:46:24;;;;;;;;;;;;;;;;;;2108130;27;1035;-70
2021/09/02 04:47:25;;;;;;;;;;;;;;;;;;2109245;27;1059;-70
2021/09/02 04:48:26;;;;;;;;;;;;;;;;;;2109483;27;1144;-70
2021/09/02 04:49:26;;;;;;;;;;;;;;;;;;2107627;27;4030;-70
2021/09/02 04:50:28;;;;;;;;;;;;;;;;;;2109934;27;3989;-70
2021/09/02 04:51:28;;;;;;;;;;;;;;;;;;2108437;27;3910;-70
2021/09/02 04:52:29;;;;;;;;;;;;;;;;;;2109937;27;1165;-70
2021/09/02 04:53:29;;;;;;;;;;;;;;;;;;2103328;27;4029;-70
2021/09/02 04:54:30;;;;;;;;;;;;;;;;;;2104545;27;1065;-70
2021/09/02 04:55:30;;;;;;;;;;;;;;;;;;2103213;27;1881;-70
2021/09/02 04:56:31;;;;;;;;;;;;;;;;;;2103887;27;1058;-70
2021/09/02 04:57:31;;;;;;;;;;;;;;;;;;2105540;27;1014;-70
2021/09/02 04:58:32;;;;;;;;;;;;;;;;;;2105043;27;1024;-70
2021/09/02 04:59:33;;;;;;;;;;;;;;;;;;2105996;27;1079;-70
2021/09/02 05:00:34;;;;;;;;;;;;;;;;;;2106160;27;1132;-70
2021/09/02 05:01:35;;;;;;;;;;;;;;;;;;2106472;27;1041;-70
2021/09/02 05:02:36;;;;;;;;;;;;;;;;;;2107153;27;1906;-70
2021/09/02 05:03:36;;;;;;;;;;;;;;;;;;2104853;27;4299;-70
2021/09/02 05:04:37;;;;;;;;;;;;;;;;;;2106018;27;4450;-70
2021/09/02 05:05:39;;;;;;;;;;;;;;;;;;2106021;27;3269;-70
2021/09/02 05:06:40;;;;;;;;;;;;;;;;;;2105797;27;1106;-70
2021/09/02 05:07:40;;;;;;;;;;;;;;;;;;2106211;27;1601;-70
2021/09/02 05:08:41;;;;;;;;;;;;;;;;;;2107341;27;1294;-70
2021/09/02 05:09:41;;;;;;;;;;;;;;;;;;2105885;27;1046;-70
2021/09/02 05:10:42;;;;;;;;;;;;;;;;;;2106939;27;4314;-70
2021/09/02 05:11:42;;;;;;;;;;;;;;;;;;2106562;27;1024;-70
2021/09/02 05:12:43;;;;;;;;;;;;;;;;;;2108012;27;1045;-70
2021/09/02 05:13:43;;;;;;;;;;;;;;;;;;2106096;27;4295;-70
2021/09/02 05:14:44;;;;;;;;;;;;;;;;;;2107925;27;4334;-70
2021/09/02 05:15:45;;;;;;;;;;;;;;;;;;2108894;27;1044;-70
2021/09/02 05:16:46;;;;;;;;;;;;;;;;;;2108593;27;1092;-70
2021/09/02 05:17:47;;;;;;;;;;;;;;;;;;2108611;27;1113;-70
2021/09/02 05:18:47;;;;;;;;;;;;;;;;;;2110852;27;1065;-70
2021/09/02 05:19:48;;;;;;;;;;;;;;;;;;2108036;27;1076;-70
2021/09/02 05:20:48;;;;;;;;;;;;;;;;;;2108955;27;4165;-70
2021/09/02 05:21:49;;;;;;;;;;;;;;;;;;2106877;27;1925;-70
2021/09/02 05:22:50;;;;;;;;;;;;;;;;;;2106473;27;1062;-70
2021/09/02 05:23:50;;;;;;;;;;;;;;;;;;2107327;27;1222;-70
2021/09/02 05:24:51;;;;;;;;;;;;;;;;;;2105840;27;4313;-70
2021/09/02 05:25:51;;;;;;;;;;;;;;;;;;2108723;27;1096;-70
2021/09/02 05:26:53;;;;;;;;;;;;;;;;;;2111156;27;1978;-70
2021/09/02 05:27:53;;;;;;;;;;;;;;;;;;2110765;27;1113;-70
2021/09/02 05:28:54;;;;;;;;;;;;;;;;;;2110395;27;1920;-70
2021/09/02 05:29:54;;;;;;;;;;;;;;;;;;2110640;27;1129;-70
2021/09/02 05:30:55;;;;;;;;;;;;;;;;;;2110391;27;1403;-70
2021/09/02 05:31:55;;;;;;;;;;;;;;;;;;2107995;27;4143;-70
2021/09/02 05:32:56;;;;;;;;;;;;;;;;;;2111196;27;4100;-70
2021/09/02 05:33:56;;;;;;;;;;;;;;;;;;2109112;27;1265;-70
2021/09/02 05:34:57;;;;;;;;;;;;;;;;;;2111183;27;3932;-70
2021/09/02 05:35:58;;;;;;;;;;;;;;;;;;2111010;27;4389;-70
2021/09/02 05:36:59;;;;;;;;;;;;;;;;;;2111113;27;1084;-70
2021/09/02 05:38:00;;;;;;;;;;;;;;;;;;2102566;27;978;-70
2021/09/02 05:39:00;;;;;;;;;;;;;;;;;;2099017;27;1458;-70
2021/09/02 05:40:01;;;;;;;;;;;;;;;;;;2098935;27;1130;-70
2021/09/02 05:41:01;;;;;;;;;;;;;;;;;;2098780;27;1057;-70
2021/09/02 05:42:03;;;;;;;;;;;;;;;;;;2099477;27;1910;-70
2021/09/02 05:43:03;;;;;;;;;;;;;;;;;;2099732;27;1251;-70
2021/09/02 05:44:05;;;;;;;;;;;;;;;;;;2098957;27;1323;-70
2021/09/02 05:45:06;;;;;;;;;;;;;;;;;;2099598;27;4278;-70
2021/09/02 05:46:06;;;;;;;;;;;;;;;;;;2099060;27;4397;-70
2021/09/02 05:47:07;;;;;;;;;;;;;;;;;;2099723;28;3999;-70
2021/09/02 05:48:07;;;;;;;;;;;;;;;;;;2099890;27;4270;-70
2021/09/02 05:49:08;;;;;;;;;;;;;;;;;;2100171;27;2085;-70
2021/09/02 05:50:09;;;;;;;;;;;;;;;;;;2101244;27;1093;-70
2021/09/02 05:51:10;;;;;;;;;;;;;;;;;;2100779;27;3056;-70
2021/09/02 05:52:10;;;;;;;;;;;;;;;;;;2101833;27;1159;-70
2021/09/02 05:53:11;;;;;;;;;;;;;;;;;;2101180;27;1214;-70
2021/09/02 05:54:11;;;;;;;;;;;;;;;;;;2102106;27;1146;-70
2021/09/02 05:55:12;;;;;;;;;;;;;;;;;;2100433;27;4374;-70
2021/09/02 05:56:12;;;;;;;;;;;;;;;;;;2101302;27;1034;-70
2021/09/02 05:57:13;;;;;;;;;;;;;;;;;;2101943;27;990;-70
2021/09/02 05:58:13;;;;;;;;;;;;;;;;;;2097472;27;1237;-70
2021/09/02 05:59:14;;;;;;;;;;;;;;;;;;2101698;27;1160;-70
2021/09/02 06:00:15;;;;;;;;;;;;;;;;;;2102859;27;1061;-70
2021/09/02 06:01:16;;;;;;;;;;;;;;;;;;2098672;27;2052;-70
2021/09/02 06:02:16;;;;;;;;;;;;;;;;;;2101843;27;1913;-70
2021/09/02 06:03:17;;;;;;;;;;;;;;;;;;2102004;27;1312;-70
2021/09/02 06:04:17;;;;;;;;;;;;;;;;;;2102964;27;3821;-70
2021/09/02 06:05:18;;;;;;;;;;;;;;;;;;2101871;27;4303;-70
2021/09/02 06:06:19;;;;;;;;;;;;;;;;;;2102938;27;1073;-70
2021/09/02 06:07:20;;;;;;;;;;;;;;;;;;2103709;27;1583;-70
2021/09/02 06:08:21;;;;;;;;;;;;;;;;;;2104638;27;1346;-70
2021/09/02 06:09:21;;;;;;;;;;;;;;;;;;2103771;27;1060;-70
2021/09/02 06:10:22;;;;;;;;;;;;;;;;;;2105302;27;997;-70
2021/09/02 06:11:22;;;;;;;;;;;;;;;;;;2103188;27;4409;-70
2021/09/02 06:12:23;;;;;;;;;;;;;;;;;;2105376;27;1093;-70
2021/09/02 06:13:24;;;;;;;;;;;;;;;;;;2103630;27;1246;-70
2021/09/02 06:14:24;;;;;;;;;;;;;;;;;;2104717;27;2299;-70
2021/09/02 06:15:25;;;;;;;;;;;;;;;;;;2102521;27;3022;-70
2021/09/02 06:16:26;;;;;;;;;;;;;;;;;;2104306;27;1890;-70
2021/09/02 06:17:27;;;;;;;;;;;;;;;;;;2106921;27;1064;-70
2021/09/02 06:18:28;;;;;;;;;;;;;;;;;;2100309;27;1214;-70
2021/09/02 06:19:28;;;;;;;;;;;;;;;;;;2105625;27;1101;-70
2021/09/02 06:20:29;;;;;;;;;;;;;;;;;;2106588;27;1037;-70
2021/09/02 06:21:29;;;;;;;;;;;;;;;;;;2104164;27;4180;-70
2021/09/02 06:22:30;;;;;;;;;;;;;;;;;;2102460;27;1985;-70
2021/09/02 06:23:31;;;;;;;;;;;;;;;;;;2105376;27;3624;-70
2021/09/02 06:24:32;;;;;;;;;;;;;;;;;;2106451;27;2026;-70
2021/09/02 06:25:32;;;;;;;;;;;;;;;;;;2107150;27;4267;-70
2021/09/02 06:26:33;;;;;;;;;;;;;;;;;;2106895;27;1169;-70
2021/09/02 06:27:35;;;;;;;;;;;;;;;;;;2106609;27;1097;-70
2021/09/02 06:28:36;;;;;;;;;;;;;;;;;;2108585;27;1049;-70
2021/09/02 06:29:36;;;;;;;;;;;;;;;;;;2107869;27;989;-70
2021/09/02 06:30:37;;;;;;;;;;;;;;;;;;2108928;27;967;-70
2021/09/02 06:31:37;;;;;;;;;;;;;;;;;;2106901;27;2011;-70
2021/09/02 06:32:38;;;;;;;;;;;;;;;;;;2108670;27;1929;-70
2021/09/02 06:33:39;;;;;;;;;;;;;;;;;;2107945;27;1347;-70
2021/09/02 06:34:41;;;;;;;;;;;;;;;;;;2106288;27;1256;-70
2021/09/02 06:35:41;;;;;;;;;;;;;;;;;;2107424;27;4086;-70
2021/09/02 06:36:42;;;;;;;;;;;;;;;;;;2108485;27;1464;-70
2021/09/02 06:37:42;;;;;;;;;;;;;;;;;;2109756;27;1161;-70
2021/09/02 06:38:43;;;;;;;;;;;;;;;;;;2110297;27;1044;-70
2021/09/02 06:39:43;;;;;;;;;;;;;;;;;;2107574;27;1093;-70
2021/09/02 06:40:44;;;;;;;;;;;;;;;;;;2110330;27;1352;-70
2021/09/02 06:41:44;;;;;;;;;;;;;;;;;;2109263;27;4385;-70
2021/09/02 06:42:45;;;;;;;;;;;;;;;;;;2110961;27;1909;-70
2021/09/02 06:43:46;;;;;;;;;;;;;;;;;;2107971;27;4282;-70
2021/09/02 06:44:47;;;;;;;;;;;;;;;;;;2111278;27;1153;-70
2021/09/02 06:45:47;;;;;;;;;;;;;;;;;;2110567;27;2207;-70
2021/09/02 06:46:48;;;;;;;;;;;;;;;;;;2111128;27;1053;-70
2021/09/02 06:47:49;;;;;;;;;;;;;;;;;;2111703;27;1105;-70
2021/09/02 06:48:49;;;;;;;;;;;;;;;;;;2110734;27;1136;-70
2021/09/02 06:49:50;;;;;;;;;;;;;;;;;;2110800;27;1044;-70
2021/09/02 06:50:50;;;;;;;;;;;;;;;;;;2108802;27;4010;-70
2021/09/02 06:51:53;;;;;;;;;;;;;;;;;;2110340;27;4286;-70
2021/09/02 06:52:53;;;;;;;;;;;;;;;;;;2112276;27;1139;-70
2021/09/02 06:53:54;;;;;;;;;;;;;;;;;;2110139;27;1293;-70
2021/09/02 06:54:54;;;;;;;;;;;;;;;;;;2107348;27;4238;-70
2021/09/02 06:55:55;;;;;;;;;;;;;;;;;;2109729;27;4590;-70
2021/09/02 06:56:55;;;;;;;;;;;;;;;;;;2097129;28;4343;-70
2021/09/02 06:57:57;;;;;;;;;;;;;;;;;;2098092;28;4388;-70
2021/09/02 06:58:57;;;;;;;;;;;;;;;;;;2098538;28;3631;-70
2021/09/02 06:59:58;;;;;;;;;;;;;;;;;;2098935;27;1069;-70
2021/09/02 07:00:59;;;;;;;;;;;;;;;;;;2098149;27;4243;-70
2021/09/02 07:01:59;;;;;;;;;;;;;;;;;;2098617;27;1159;-70